Weather at Brenham Municipal Airport

Public forecast

Using degrees Fahrenheit for public forecast. Weather courtesy of forecast.io.

Current aviation weather report (METAR) for Brenham Municipal Airport

Retrieved 2020/11/25 04:35 UTC (6 minutes ago):

K11R 250435Z AUTO 18008G15KT 10SM BKN016 BKN025 23/22 A2988 RMK AO2 T02320215

Closest aviation forecast (TAF) to Brenham Municipal Airport

Closest forecast is Easterwood Field, 22.2 nm (41.1 km) N. Retrieved 2020-11-25 00:36 UTC (4 hours ago):

TAF KCLL 242335Z 2500/2524 17015G25KT P6SM SCT035 BKN050 FM250300 17014KT P6SM BKN025 FM250700 20010KT P6SM VCTS OVC015CB TEMPO 2508/2509 -TSRA SCT005CB FM251000 29006KT P6SM SCT015 BKN025 FM251400 33008KT P6SM SCT020 BKN250